Time;durP1;ratioP1;P1;durP2;ratioP2;P2;SDS_P1;SDS_P2;PMS_P1;PMS_P2;Temp;Humidity;BMP_temperature;BMP_pressure;BME280_temperature;BME280_humidity;BME280_pressure;Samples;Min_cycle;Max_cycle;Signal;HPM_P1;HPM_P2
2022/04/24 00:00:39;;;;;;;2.40;2.20;;;18.10;47.20;;;;;;5060023;28;20210;-93
2022/04/24 00:03:05;;;;;;;2.80;2.43;;;18.00;47.20;;;;;;5060711;28;20198;-94
2022/04/24 00:05:32;;;;;;;2.53;2.33;;;18.00;47.20;;;;;;5058972;28;20172;-94
2022/04/24 00:07:57;;;;;;;2.57;2.37;;;18.00;47.20;;;;;;5058823;28;20170;-92
2022/04/24 00:10:23;;;;;;;2.50;2.30;;;18.00;47.20;;;;;;5057109;28;20228;-92
2022/04/24 00:12:49;;;;;;;2.20;2.00;;;18.00;47.20;;;;;;5074906;28;20195;-92
2022/04/24 00:15:15;;;;;;;2.60;2.30;;;17.90;47.20;;;;;;5057277;28;20185;-92
2022/04/24 00:17:41;;;;;;;2.50;2.30;;;17.90;47.20;;;;;;5056428;28;20187;-92
2022/04/24 00:20:08;;;;;;;2.83;2.40;;;17.90;47.20;;;;;;5056490;28;20209;-92
2022/04/24 00:22:33;;;;;;;2.50;2.30;;;17.90;47.40;;;;;;5057192;28;20177;-92
2022/04/24 00:24:59;;;;;;;2.90;2.40;;;17.90;47.20;;;;;;5056136;28;20183;-92
2022/04/24 00:27:26;;;;;;;4.00;2.30;;;17.90;47.20;;;;;;5056222;28;20178;-92
2022/04/24 00:29:52;;;;;;;2.33;2.13;;;17.90;47.20;;;;;;5056868;28;20223;-92
2022/04/24 00:32:17;;;;;;;2.43;2.23;;;17.80;47.20;;;;;;5055373;28;20181;-92
2022/04/24 00:34:43;;;;;;;2.70;2.50;;;17.80;47.20;;;;;;5074158;28;20227;-92
2022/04/24 00:37:09;;;;;;;2.77;2.30;;;17.80;47.20;;;;;;5056042;28;20485;-92
2022/04/24 00:39:35;;;;;;;2.80;2.37;;;17.80;47.20;;;;;;5056442;28;20210;-92
2022/04/24 00:42:00;;;;;;;2.67;2.47;;;17.80;47.20;;;;;;5057540;28;20184;-92
2022/04/24 00:44:29;;;;;;;2.40;2.20;;;17.80;47.20;;;;;;5057307;28;20172;-93
2022/04/24 00:47:02;;;;;;;2.60;2.30;;;17.70;47.20;;;;;;5057046;28;20194;-93
2022/04/24 00:49:28;;;;;;;2.63;2.43;;;17.70;47.20;;;;;;5056638;28;20171;-93
2022/04/24 00:51:55;;;;;;;2.43;2.23;;;17.70;47.20;;;;;;5056315;28;20437;-94
2022/04/24 00:54:21;;;;;;;2.73;2.53;;;17.70;47.20;;;;;;5056509;28;20182;-93
2022/04/24 00:56:48;;;;;;;2.50;2.20;;;17.70;47.20;;;;;;5056570;28;20178;-93
2022/04/24 00:59:15;;;;;;;2.43;2.23;;;17.70;47.20;;;;;;5060638;28;20201;-93
2022/04/24 01:01:41;;;;;;;2.60;2.40;;;17.60;47.20;;;;;;5060987;28;20170;-93
2022/04/24 01:04:09;;;;;;;3.20;2.40;;;17.60;47.20;;;;;;5060709;28;20483;-94
2022/04/24 01:06:42;;;;;;;2.77;2.30;;;17.60;47.20;;;;;;5059269;28;20170;-93
2022/04/24 01:09:13;;;;;;;2.50;2.30;;;17.60;47.60;;;;;;5061303;28;20203;-93
2022/04/24 01:11:41;;;;;;;2.50;2.30;;;17.60;47.20;;;;;;5061111;28;20590;-93
2022/04/24 01:14:07;;;;;;;2.77;2.53;;;17.60;47.20;;;;;;5060161;28;20489;-94
2022/04/24 01:16:34;;;;;;;2.80;2.60;;;17.50;47.20;;;;;;5062362;28;20228;-92
2022/04/24 01:19:00;;;;;;;2.60;2.40;;;17.50;47.20;;;;;;5060281;28;20179;-93
2022/04/24 01:21:26;;;;;;;2.60;2.40;;;17.50;47.20;;;;;;5061375;28;20201;-92
2022/04/24 01:23:52;;;;;;;2.80;2.50;;;17.50;47.20;;;;;;5061393;28;20177;-93
2022/04/24 01:26:18;;;;;;;2.60;2.37;;;17.50;47.30;;;;;;5060580;28;20201;-93
2022/04/24 01:28:43;;;;;;;2.70;2.30;;;17.50;47.30;;;;;;5060996;28;20208;-92
2022/04/24 01:32:02;;;;;;;7.63;2.50;;;17.50;47.30;;;;;;5062283;28;20201;-93
2022/04/24 01:34:28;;;;;;;2.30;2.10;;;17.50;47.30;;;;;;5060653;28;20186;-92
2022/04/24 01:36:53;;;;;;;2.60;2.40;;;17.50;47.30;;;;;;5039485;28;20173;-93
2022/04/24 01:39:19;;;;;;;2.57;2.27;;;17.50;47.30;;;;;;5059227;28;20216;-93
2022/04/24 01:41:45;;;;;;;2.90;2.70;;;17.40;47.30;;;;;;5059965;28;20216;-93
2022/04/24 01:44:11;;;;;;;2.50;2.30;;;17.40;47.30;;;;;;5060507;28;20174;-93
2022/04/24 01:46:37;;;;;;;2.60;2.40;;;17.40;47.30;;;;;;5059635;28;20179;-93
2022/04/24 01:49:04;;;;;;;2.70;2.50;;;17.40;47.30;;;;;;5061494;28;20174;-93
2022/04/24 01:51:29;;;;;;;2.60;2.40;;;17.40;47.30;;;;;;5061674;28;20610;-93
2022/04/24 01:53:55;;;;;;;2.60;2.40;;;17.40;47.30;;;;;;5060448;28;20468;-93
2022/04/24 01:56:21;;;;;;;3.50;2.50;;;17.30;47.20;;;;;;5060670;28;20166;-92
2022/04/24 01:58:46;;;;;;;3.00;2.30;;;17.30;47.30;;;;;;5058308;28;20200;-93
2022/04/24 02:01:12;;;;;;;2.87;2.50;;;17.30;47.30;;;;;;5060577;28;20213;-93
2022/04/24 02:03:38;;;;;;;2.80;2.60;;;17.30;47.30;;;;;;5060143;28;20174;-93
2022/04/24 02:06:05;;;;;;;2.50;2.30;;;17.30;47.30;;;;;;5060835;28;20248;-92
2022/04/24 02:08:31;;;;;;;2.33;2.13;;;17.30;47.30;;;;;;5060338;28;20260;-92
2022/04/24 02:10:58;;;;;;;2.80;2.60;;;17.30;47.30;;;;;;5060717;28;20173;-92
2022/04/24 02:13:24;;;;;;;2.40;2.20;;;17.20;47.20;;;;;;5061124;28;20174;-92
2022/04/24 02:15:50;;;;;;;2.53;2.33;;;17.20;47.20;;;;;;5061282;28;20183;-92
2022/04/24 02:18:16;;;;;;;2.90;2.60;;;17.20;47.30;;;;;;5060398;28;20191;-92
2022/04/24 02:20:42;;;;;;;2.83;2.30;;;17.20;47.30;;;;;;5060489;28;20205;-92
2022/04/24 02:23:08;;;;;;;4.43;2.40;;;17.20;47.30;;;;;;5063681;28;20170;-94
2022/04/24 02:25:34;;;;;;;3.00;2.70;;;17.20;47.30;;;;;;5065281;28;20221;-94
2022/04/24 02:28:00;;;;;;;2.90;2.60;;;17.20;47.30;;;;;;5065118;28;20558;-94
2022/04/24 02:30:28;;;;;;;3.30;2.30;;;17.10;47.20;;;;;;5064346;28;20187;-94
2022/04/24 02:32:58;;;;;;;2.90;2.60;;;17.10;47.30;;;;;;5065202;28;20307;-94
2022/04/24 02:35:25;;;;;;;2.97;2.40;;;17.10;47.30;;;;;;5064419;28;20175;-93
2022/04/24 02:37:50;;;;;;;3.13;2.33;;;17.10;47.30;;;;;;5064924;28;20203;-94
2022/04/24 02:40:21;;;;;;;2.77;2.50;;;17.10;47.30;;;;;;5063735;28;20622;-94
2022/04/24 02:42:51;;;;;;;2.57;2.37;;;17.10;47.30;;;;;;5063384;28;20205;-93
2022/04/24 02:45:26;;;;;;;3.00;2.80;;;17.10;47.30;;;;;;5064488;28;20414;-94
2022/04/24 02:47:52;;;;;;;2.70;2.50;;;17.10;47.30;;;;;;5064860;28;20476;-93
2022/04/24 02:50:18;;;;;;;2.80;2.60;;;17.00;47.30;;;;;;5064106;28;20178;-93
2022/04/24 02:52:55;;;;;;;2.70;2.50;;;17.00;47.30;;;;;;5063555;28;20180;-93
2022/04/24 02:55:24;;;;;;;2.67;2.47;;;17.00;47.30;;;;;;5063814;28;20174;-93
2022/04/24 02:57:50;;;;;;;3.10;2.80;;;17.00;47.30;;;;;;5067163;28;20242;-94
2022/04/24 03:00:22;;;;;;;3.03;2.73;;;17.00;47.30;;;;;;5060764;28;20198;-94
2022/04/24 03:02:49;;;;;;;2.57;2.37;;;17.00;47.30;;;;;;5060658;28;20170;-94
2022/04/24 03:05:20;;;;;;;2.97;2.67;;;17.00;47.30;;;;;;5061864;28;20234;-93
2022/04/24 03:07:46;;;;;;;2.83;2.63;;;16.90;47.30;;;;;;5062920;28;20170;-94
2022/04/24 03:10:13;;;;;;;2.53;2.33;;;16.90;47.30;;;;;;5061831;28;20618;-93
2022/04/24 03:12:40;;;;;;;3.30;3.00;;;16.90;47.30;;;;;;5063301;28;20180;-95
2022/04/24 03:15:07;;;;;;;2.90;2.63;;;16.90;47.30;;;;;;5063535;28;20267;-94
2022/04/24 03:17:33;;;;;;;2.57;2.37;;;16.90;47.30;;;;;;5063001;28;20172;-94
2022/04/24 03:20:00;;;;;;;3.13;2.83;;;16.90;47.30;;;;;;5064899;28;20223;-94
2022/04/24 03:22:30;;;;;;;3.00;2.37;;;16.90;47.70;;;;;;5064137;28;20238;-95
2022/04/24 03:24:57;;;;;;;2.83;2.63;;;16.90;47.30;;;;;;5063137;28;20254;-94
2022/04/24 03:27:23;;;;;;;2.70;2.50;;;16.80;47.30;;;;;;5062545;28;20206;-94
2022/04/24 03:29:49;;;;;;;2.80;2.50;;;16.80;47.30;;;;;;5060397;28;20225;-92
2022/04/24 03:32:15;;;;;;;2.70;2.50;;;16.80;47.30;;;;;;5059172;28;20431;-93
2022/04/24 03:34:42;;;;;;;2.90;2.70;;;16.80;47.30;;;;;;5060012;28;20239;-93
2022/04/24 03:37:08;;;;;;;2.70;2.50;;;16.80;47.30;;;;;;5059240;28;20182;-92
2022/04/24 03:39:33;;;;;;;2.60;2.40;;;16.80;47.30;;;;;;5058315;28;20203;-92
2022/04/24 03:41:59;;;;;;;2.80;2.60;;;16.80;47.30;;;;;;5058798;28;20173;-93
2022/04/24 03:44:25;;;;;;;2.60;2.40;;;16.80;47.30;;;;;;5059005;28;20187;-93
2022/04/24 03:46:50;;;;;;;2.63;2.43;;;16.80;47.40;;;;;;5058287;28;20167;-92
2022/04/24 03:49:16;;;;;;;2.60;2.40;;;16.70;47.30;;;;;;5058082;28;20171;-92
2022/04/24 03:51:42;;;;;;;2.70;2.50;;;16.70;47.30;;;;;;5059834;28;20195;-92
2022/04/24 03:54:08;;;;;;;2.50;2.30;;;16.70;47.30;;;;;;5058325;28;20291;-93
2022/04/24 03:56:34;;;;;;;2.40;2.20;;;16.70;47.30;;;;;;5058018;28;20275;-93
2022/04/24 03:59:01;;;;;;;2.70;2.50;;;16.70;47.40;;;;;;5058367;28;20176;-93
2022/04/24 04:01:27;;;;;;;2.70;2.50;;;16.70;47.40;;;;;;5059761;28;20185;-94
2022/04/24 04:03:53;;;;;;;2.63;2.43;;;16.70;47.40;;;;;;5061180;28;20211;-94
2022/04/24 04:06:19;;;;;;;3.70;2.20;;;16.70;47.40;;;;;;5059587;28;20212;-94
2022/04/24 04:08:45;;;;;;;2.70;2.50;;;16.70;47.40;;;;;;5059503;28;20187;-94
2022/04/24 04:11:12;;;;;;;2.60;2.40;;;16.70;47.40;;;;;;5060428;28;20172;-94
2022/04/24 04:13:38;;;;;;;2.37;2.17;;;16.60;47.40;;;;;;5060879;28;20168;-94
2022/04/24 04:16:04;;;;;;;2.57;2.37;;;16.60;47.40;;;;;;5060475;28;20171;-94
2022/04/24 04:18:30;;;;;;;2.83;2.57;;;16.60;47.40;;;;;;5061054;28;20184;-93
2022/04/24 04:20:57;;;;;;;2.53;2.33;;;16.60;47.40;;;;;;5061161;28;20209;-94
2022/04/24 04:23:23;;;;;;;2.83;2.63;;;16.60;47.40;;;;;;5064645;28;20418;-94
2022/04/24 04:25:49;;;;;;;3.00;2.70;;;16.60;47.40;;;;;;5060604;28;20198;-94
2022/04/24 04:28:14;;;;;;;2.63;2.40;;;16.60;47.40;;;;;;5060372;28;20174;-94
2022/04/24 04:30:41;;;;;;;3.20;2.90;;;16.60;47.40;;;;;;5062146;28;20268;-94
2022/04/24 04:33:07;;;;;;;2.47;2.27;;;16.60;47.40;;;;;;5059962;28;20173;-93
2022/04/24 04:35:33;;;;;;;2.50;2.30;;;16.60;47.40;;;;;;5062608;28;20177;-94
2022/04/24 04:37:58;;;;;;;2.70;2.50;;;16.60;47.50;;;;;;5057675;28;20506;-93
2022/04/24 04:40:25;;;;;;;2.60;2.37;;;16.50;47.40;;;;;;5057849;28;20358;-93
2022/04/24 04:42:51;;;;;;;3.00;2.70;;;16.50;47.40;;;;;;5058142;28;20234;-94
2022/04/24 04:45:17;;;;;;;2.90;2.60;;;16.50;47.40;;;;;;5056941;28;20176;-93
2022/04/24 04:47:44;;;;;;;2.60;2.40;;;16.50;47.40;;;;;;5058431;28;20180;-94
2022/04/24 04:50:10;;;;;;;2.50;2.30;;;16.50;47.40;;;;;;5058146;28;20171;-94
2022/04/24 04:52:36;;;;;;;3.07;2.73;;;16.50;47.40;;;;;;5057188;28;20459;-94
2022/04/24 04:55:05;;;;;;;2.63;2.43;;;16.50;47.40;;;;;;5057375;28;20561;-93
2022/04/24 04:57:32;;;;;;;2.87;2.63;;;16.60;47.40;;;;;;5056960;28;20173;-94
2022/04/24 04:59:57;;;;;;;2.97;2.70;;;16.60;47.40;;;;;;5057801;28;20215;-94
2022/04/24 05:02:23;;;;;;;4.47;2.37;;;16.60;47.40;;;;;;5057765;28;20176;-94
2022/04/24 05:04:49;;;;;;;3.00;2.70;;;16.60;47.30;;;;;;5057652;28;20284;-94
2022/04/24 05:07:15;;;;;;;2.80;2.60;;;16.60;47.30;;;;;;5056606;28;20210;-94
2022/04/24 05:09:41;;;;;;;3.47;2.70;;;16.60;47.30;;;;;;5057383;28;20172;-94
2022/04/24 05:12:07;;;;;;;2.60;2.40;;;16.70;47.30;;;;;;5056659;28;20191;-94
2022/04/24 05:14:33;;;;;;;2.77;2.57;;;16.70;47.20;;;;;;5057621;28;20174;-94
2022/04/24 05:16:59;;;;;;;2.60;2.40;;;16.80;47.10;;;;;;5057561;28;20180;-94
2022/04/24 05:19:26;;;;;;;3.27;2.80;;;16.80;47.00;;;;;;5057954;28;20635;-94
2022/04/24 05:21:54;;;;;;;3.00;2.70;;;17.00;47.00;;;;;;5058018;28;20178;-93
2022/04/24 05:24:20;;;;;;;2.67;2.47;;;17.00;46.90;;;;;;5057627;28;20191;-94
2022/04/24 05:26:46;;;;;;;2.50;2.30;;;17.20;46.70;;;;;;5057127;28;20179;-94
2022/04/24 05:29:12;;;;;;;2.77;2.57;;;17.40;46.40;;;;;;5056919;28;20199;-93
2022/04/24 05:31:38;;;;;;;2.97;2.77;;;17.60;46.20;;;;;;5057240;28;20482;-93
2022/04/24 05:34:04;;;;;;;3.37;2.70;;;17.70;46.00;;;;;;5058280;28;20280;-94
2022/04/24 05:36:30;;;;;;;3.33;2.70;;;17.80;45.80;;;;;;5057370;28;20181;-93
2022/04/24 05:38:56;;;;;;;3.40;2.47;;;17.90;45.80;;;;;;5058171;28;20176;-94
2022/04/24 05:41:22;;;;;;;2.93;2.70;;;17.90;45.70;;;;;;5058089;28;20210;-94
2022/04/24 05:43:47;;;;;;;3.13;2.90;;;17.80;45.70;;;;;;5060648;28;20176;-93
2022/04/24 05:46:13;;;;;;;3.10;2.80;;;17.90;45.80;;;;;;5063813;28;20232;-93
2022/04/24 05:48:39;;;;;;;3.10;2.80;;;17.80;45.70;;;;;;5065627;28;20181;-94
2022/04/24 05:51:05;;;;;;;3.50;2.73;;;17.80;45.80;;;;;;5063624;28;20182;-94
2022/04/24 05:53:30;;;;;;;2.97;2.70;;;17.80;45.80;;;;;;5064220;28;20198;-94
2022/04/24 05:55:57;;;;;;;3.97;2.77;;;17.80;45.90;;;;;;5062257;28;20171;-93
2022/04/24 05:58:25;;;;;;;3.67;3.17;;;17.80;45.90;;;;;;5063975;28;20167;-95
2022/04/24 06:00:50;;;;;;;3.07;2.80;;;17.80;45.90;;;;;;5063163;28;20207;-93
2022/04/24 06:03:16;;;;;;;3.60;2.90;;;17.80;46.00;;;;;;5062062;28;20316;-93
2022/04/24 06:05:45;;;;;;;3.23;2.93;;;17.80;46.00;;;;;;5063414;28;20195;-94
2022/04/24 06:08:11;;;;;;;3.87;2.90;;;17.80;46.10;;;;;;5063510;28;20179;-94
2022/04/24 06:10:37;;;;;;;2.93;2.63;;;17.80;46.10;;;;;;5064662;28;20172;-94
2022/04/24 06:13:02;;;;;;;2.70;2.50;;;17.90;46.10;;;;;;5064883;28;20179;-94
2022/04/24 06:15:28;;;;;;;3.37;2.47;;;17.90;46.20;;;;;;5063884;28;20180;-93
2022/04/24 06:17:57;;;;;;;5.23;3.00;;;17.90;46.10;;;;;;5060442;28;20186;-93
2022/04/24 06:20:25;;;;;;;3.20;2.90;;;18.00;46.20;;;;;;5060124;28;20208;-92
2022/04/24 06:22:56;;;;;;;3.33;3.03;;;18.00;46.20;;;;;;5059663;28;20170;-94
2022/04/24 06:25:23;;;;;;;4.27;2.80;;;18.10;46.00;;;;;;5059168;28;20178;-93
2022/04/24 06:27:50;;;;;;;2.80;2.60;;;18.10;46.10;;;;;;5057762;28;20175;-93
2022/04/24 06:30:18;;;;;;;3.03;2.83;;;18.20;46.10;;;;;;5059779;28;20463;-94
2022/04/24 06:32:45;;;;;;;3.50;3.20;;;18.20;46.00;;;;;;5060315;28;20182;-94
2022/04/24 06:35:15;;;;;;;3.43;3.00;;;18.30;46.00;;;;;;5059726;28;20186;-93
2022/04/24 06:37:46;;;;;;;5.00;2.83;;;18.40;45.90;;;;;;5058942;28;20179;-93
2022/04/24 06:40:14;;;;;;;3.10;2.80;;;18.60;45.60;;;;;;5059047;28;20208;-93
2022/04/24 06:42:57;;;;;;;3.07;2.77;;;18.90;45.30;;;;;;5058416;28;20177;-91
2022/04/24 06:45:30;;;;;;;4.87;3.13;;;19.10;45.00;;;;;;5060570;28;20172;-93
2022/04/24 06:48:11;;;;;;;3.43;2.80;;;19.30;45.00;;;;;;5058633;28;20176;-94
2022/04/24 06:50:38;;;;;;;2.63;2.43;;;19.40;44.60;;;;;;5061881;28;20172;-94
2022/04/24 06:53:19;;;;;;;3.60;2.80;;;19.50;44.70;;;;;;5060727;28;20178;-93
2022/04/24 06:55:47;;;;;;;3.23;2.93;;;19.60;44.70;;;;;;5059383;28;20210;-94
2022/04/24 06:58:15;;;;;;;3.47;2.80;;;19.70;44.60;;;;;;5062324;28;20178;-92
2022/04/24 07:00:43;;;;;;;3.97;3.13;;;19.80;44.50;;;;;;5062915;28;20203;-92
2022/04/24 07:03:09;;;;;;;3.40;3.10;;;19.80;44.40;;;;;;5063769;28;20174;-92
2022/04/24 07:05:35;;;;;;;3.30;3.00;;;19.90;44.40;;;;;;5064909;28;20175;-92
2022/04/24 07:08:01;;;;;;;3.73;2.90;;;20.00;44.30;;;;;;5063345;28;20233;-92
2022/04/24 07:10:27;;;;;;;3.90;2.80;;;20.00;44.20;;;;;;5063288;28;20179;-92
2022/04/24 07:12:54;;;;;;;3.33;2.90;;;20.10;44.20;;;;;;5063284;28;20176;-92
2022/04/24 07:15:22;;;;;;;3.70;2.90;;;20.20;44.10;;;;;;5062462;28;20187;-92
2022/04/24 07:17:49;;;;;;;4.73;3.30;;;20.30;44.10;;;;;;5063131;28;20251;-92
2022/04/24 07:20:16;;;;;;;3.30;3.00;;;20.30;44.10;;;;;;5060518;28;20310;-91
2022/04/24 07:22:52;;;;;;;3.50;3.20;;;20.40;43.90;;;;;;5058195;28;20670;-91
2022/04/24 07:25:22;;;;;;;3.60;3.30;;;20.40;43.90;;;;;;5057427;28;20171;-92
2022/04/24 07:27:49;;;;;;;3.40;3.10;;;20.60;43.70;;;;;;5057370;28;20230;-91
2022/04/24 07:30:17;;;;;;;3.97;3.17;;;20.60;43.70;;;;;;5057847;28;20680;-91
2022/04/24 07:32:52;;;;;;;3.53;3.20;;;20.60;43.60;;;;;;5057414;28;20532;-92
2022/04/24 07:35:25;;;;;;;3.37;3.07;;;20.70;43.50;;;;;;5056374;28;20207;-92
2022/04/24 07:37:51;;;;;;;3.17;2.60;;;20.90;43.40;;;;;;5057966;28;20556;-91
2022/04/24 07:40:22;;;;;;;3.73;3.10;;;20.90;43.30;;;;;;5057921;28;20211;-91
2022/04/24 07:42:48;;;;;;;3.73;3.27;;;20.90;43.20;;;;;;5057670;28;20596;-92
2022/04/24 07:45:23;;;;;;;5.40;3.30;;;21.00;43.20;;;;;;5056640;28;20187;-90
2022/04/24 07:47:50;;;;;;;3.40;3.10;;;21.10;43.10;;;;;;5056763;28;20483;-92
2022/04/24 07:50:17;;;;;;;4.07;3.23;;;21.20;43.10;;;;;;5057407;28;20275;-91
2022/04/24 07:52:44;;;;;;;3.27;2.97;;;21.20;42.90;;;;;;5056149;28;20179;-92
2022/04/24 07:55:17;;;;;;;3.97;3.23;;;21.30;43.30;;;;;;5057095;28;20476;-91
2022/04/24 07:57:43;;;;;;;3.23;2.93;;;21.40;42.80;;;;;;5057873;28;20224;-92
2022/04/24 08:00:12;;;;;;;3.10;2.90;;;21.40;42.80;;;;;;5055610;28;20234;-93
2022/04/24 08:03:00;;;;;;;2.83;2.63;;;21.50;42.70;;;;;;5056141;28;20175;-92
2022/04/24 08:05:28;;;;;;;3.57;3.10;;;21.50;42.70;;;;;;5056231;28;20211;-92
2022/04/24 08:07:55;;;;;;;3.27;2.97;;;21.60;42.60;;;;;;5056561;28;20168;-92
2022/04/24 08:10:23;;;;;;;4.33;3.20;;;21.70;42.70;;;;;;5055417;28;20175;-90
2022/04/24 08:12:49;;;;;;;3.83;3.43;;;21.70;42.60;;;;;;5056050;28;20175;-92
2022/04/24 08:15:16;;;;;;;3.63;3.23;;;21.80;42.60;;;;;;5055382;28;20210;-92
2022/04/24 08:17:42;;;;;;;3.97;3.10;;;21.80;42.50;;;;;;5063990;28;20198;-93
2022/04/24 08:20:09;;;;;;;3.30;3.10;;;21.90;42.40;;;;;;5059350;28;20253;-92
2022/04/24 08:22:45;;;;;;;4.00;3.20;;;22.00;42.30;;;;;;5061311;28;20325;-93
2022/04/24 08:25:16;;;;;;;3.27;2.97;;;22.00;42.30;;;;;;5062667;28;20594;-91
2022/04/24 08:27:43;;;;;;;3.23;2.93;;;22.00;42.20;;;;;;5062335;28;20176;-92
2022/04/24 08:30:10;;;;;;;4.37;2.90;;;22.20;42.10;;;;;;5057777;28;20252;-92
2022/04/24 08:32:37;;;;;;;3.40;3.10;;;22.20;42.10;;;;;;5057474;28;20821;-93
2022/04/24 08:35:05;;;;;;;3.25;2.95;;;22.20;42.00;;;;;;5061027;28;20210;-93
2022/04/24 08:37:31;;;;;;;3.28;2.97;;;22.30;42.00;;;;;;5060674;28;20279;-93
2022/04/24 08:39:57;;;;;;;3.27;2.97;;;22.40;42.00;;;;;;5058537;28;20264;-92
2022/04/24 08:42:23;;;;;;;3.30;3.00;;;22.40;41.90;;;;;;5059444;28;20171;-93
2022/04/24 08:44:51;;;;;;;3.65;3.22;;;22.50;41.90;;;;;;5057205;28;20456;-92
2022/04/24 08:47:18;;;;;;;3.20;2.95;;;22.60;41.90;;;;;;5056779;28;20171;-92
2022/04/24 08:49:44;;;;;;;3.30;3.00;;;22.60;41.80;;;;;;5056158;28;20176;-92
2022/04/24 08:52:10;;;;;;;3.63;3.30;;;22.60;41.70;;;;;;5059547;28;20499;-92
2022/04/24 08:54:38;;;;;;;3.83;3.13;;;22.60;41.70;;;;;;5055936;28;20179;-92
2022/04/24 08:57:04;;;;;;;4.27;3.30;;;22.70;41.70;;;;;;5055149;28;20230;-92
2022/04/24 08:59:30;;;;;;;3.17;2.97;;;22.80;41.60;;;;;;5057000;28;20175;-91
2022/04/24 09:01:58;;;;;;;3.70;3.22;;;22.80;41.60;;;;;;5054959;28;20183;-93
2022/04/24 09:04:26;;;;;;;3.60;3.30;;;22.90;41.60;;;;;;5055415;28;20494;-91
2022/04/24 09:06:59;;;;;;;3.67;3.08;;;22.90;41.50;;;;;;5055860;28;20182;-91
2022/04/24 09:09:25;;;;;;;3.78;3.10;;;23.00;41.50;;;;;;5054349;28;20270;-91
2022/04/24 09:11:51;;;;;;;3.33;3.05;;;23.00;41.40;;;;;;5053131;28;20576;-91
2022/04/24 09:14:23;;;;;;;4.07;3.53;;;23.10;41.40;;;;;;5053639;28;20176;-91
2022/04/24 09:16:49;;;;;;;3.47;3.17;;;23.00;41.40;;;;;;5054201;28;20554;-91
2022/04/24 09:19:20;;;;;;;4.15;3.47;;;23.10;41.40;;;;;;5057130;28;20463;-90
2022/04/24 09:21:50;;;;;;;3.45;3.15;;;23.10;41.40;;;;;;5057201;28;20290;-91
2022/04/24 09:24:18;;;;;;;4.18;3.40;;;23.10;41.30;;;;;;5058159;28;20279;-90
2022/04/24 09:26:57;;;;;;;4.03;3.65;;;23.20;41.30;;;;;;5057209;28;20167;-89
2022/04/24 09:29:23;;;;;;;3.60;3.30;;;23.20;41.20;;;;;;5057814;28;20226;-91
2022/04/24 09:31:51;;;;;;;3.45;3.15;;;23.20;41.10;;;;;;5058179;28;20225;-91
2022/04/24 09:34:19;;;;;;;3.83;3.53;;;23.30;41.20;;;;;;5058588;28;20503;-91
2022/04/24 09:37:03;;;;;;;3.60;3.30;;;23.30;41.20;;;;;;5058069;28;20464;-90
2022/04/24 09:39:33;;;;;;;3.72;3.42;;;23.30;41.10;;;;;;5058133;28;20178;-90
2022/04/24 09:42:14;;;;;;;3.78;3.47;;;23.30;41.10;;;;;;5056621;28;20340;-90
2022/04/24 09:44:50;;;;;;;4.10;3.70;;;23.20;41.00;;;;;;5056716;28;20294;-90
2022/04/24 09:47:24;;;;;;;4.40;3.33;;;23.10;41.00;;;;;;5056485;28;20163;-89
2022/04/24 09:49:51;;;;;;;3.70;3.40;;;22.70;41.20;;;;;;5056587;28;20175;-90
2022/04/24 09:52:23;;;;;;;4.15;3.20;;;22.40;41.70;;;;;;5056219;28;20262;-90
2022/04/24 09:54:54;;;;;;;4.03;3.63;;;22.00;42.10;;;;;;5056924;28;20225;-91
2022/04/24 09:57:23;;;;;;;3.60;3.30;;;21.70;42.60;;;;;;5056323;28;20188;-90
2022/04/24 09:59:50;;;;;;;3.67;3.38;;;21.40;42.90;;;;;;5056341;28;20207;-91
2022/04/24 10:02:18;;;;;;;3.58;3.28;;;21.30;43.20;;;;;;5073902;28;20263;-91
2022/04/24 10:04:45;;;;;;;3.30;3.00;;;21.10;43.40;;;;;;5056736;28;20393;-90
2022/04/24 10:07:13;;;;;;;3.63;3.33;;;21.10;43.60;;;;;;5055755;28;20274;-90
2022/04/24 10:09:42;;;;;;;3.55;3.25;;;20.90;43.60;;;;;;5056899;28;20312;-91
2022/04/24 10:12:19;;;;;;;3.70;3.40;;;20.90;43.70;;;;;;5057404;28;20203;-91
2022/04/24 10:14:56;;;;;;;4.03;3.53;;;20.80;43.80;;;;;;5057683;28;20180;-90
2022/04/24 10:17:45;;;;;;;3.35;3.05;;;20.80;43.80;;;;;;5056894;28;20241;-91
2022/04/24 10:20:53;;;;;;;3.20;2.90;;;20.80;44.30;;;;;;5056151;28;20480;-92
2022/04/24 10:23:38;;;;;;;3.40;3.10;;;20.80;43.90;;;;;;5055825;28;20175;-92
2022/04/24 10:26:24;;;;;;;3.65;3.35;;;20.80;44.00;;;;;;5055923;28;20167;-92
2022/04/24 10:29:05;;;;;;;4.10;3.30;;;20.80;44.00;;;;;;5059663;28;20211;-93
2022/04/24 10:31:42;;;;;;;4.27;3.40;;;20.80;44.00;;;;;;5057459;28;20445;-91
2022/04/24 10:34:08;;;;;;;3.53;3.23;;;20.70;44.00;;;;;;5058629;28;20171;-91
2022/04/24 10:36:33;;;;;;;3.67;3.37;;;20.70;44.10;;;;;;5058962;28;20445;-90
2022/04/24 10:39:00;;;;;;;4.07;3.60;;;20.70;44.00;;;;;;5057236;28;20176;-90
2022/04/24 10:41:30;;;;;;;4.30;3.57;;;20.70;44.00;;;;;;5054792;28;20502;-91
2022/04/24 10:44:09;;;;;;;4.03;3.63;;;20.60;44.10;;;;;;5072101;28;20240;-91
2022/04/24 10:46:40;;;;;;;4.20;3.57;;;20.70;44.10;;;;;;5053502;28;20172;-90
2022/04/24 10:49:10;;;;;;;3.97;3.63;;;20.60;44.00;;;;;;5055354;28;20427;-91
2022/04/24 10:51:37;;;;;;;3.87;3.50;;;20.70;44.10;;;;;;5055705;28;20179;-92
2022/04/24 10:54:08;;;;;;;4.40;3.50;;;20.70;44.10;;;;;;5054575;28;20194;-91
2022/04/24 10:56:36;;;;;;;3.43;3.13;;;20.70;44.20;;;;;;5054756;28;20182;-90
2022/04/24 10:59:15;;;;;;;3.90;3.50;;;20.60;44.20;;;;;;5054783;28;20175;-90
2022/04/24 11:01:46;;;;;;;5.17;3.33;;;20.60;44.10;;;;;;5054287;28;20371;-90
2022/04/24 11:04:14;;;;;;;3.60;3.20;;;20.60;44.10;;;;;;5056294;28;20206;-91
2022/04/24 11:06:57;;;;;;;4.00;3.57;;;20.60;44.20;;;;;;5057785;28;20201;-92
2022/04/24 11:09:29;;;;;;;3.57;3.27;;;20.60;44.20;;;;;;5057449;28;20166;-91
2022/04/24 11:12:01;;;;;;;3.43;3.13;;;20.60;44.20;;;;;;5055974;28;20410;-91
2022/04/24 11:14:28;;;;;;;3.47;3.17;;;20.60;44.20;;;;;;5055974;28;20168;-92
2022/04/24 11:17:03;;;;;;;3.60;3.30;;;20.60;44.30;;;;;;5055422;28;20482;-92
2022/04/24 11:20:15;;;;;;;3.60;3.30;;;20.60;44.30;;;;;;5057916;28;20439;-92
2022/04/24 11:22:16;;;;;;;3.70;3.33;;;20.60;44.30;;;;;;5062989;28;20192;-92
2022/04/24 11:24:42;;;;;;;3.83;3.53;;;20.60;44.30;;;;;;5054543;28;20452;-90
2022/04/24 11:27:15;;;;;;;4.10;3.70;;;20.60;44.20;;;;;;5058081;28;20175;-91
2022/04/24 11:29:43;;;;;;;6.03;3.23;;;20.60;44.20;;;;;;5056878;28;20223;-92
2022/04/24 11:32:11;;;;;;;3.83;3.30;;;20.60;44.30;;;;;;5057715;28;20190;-92
2022/04/24 11:34:39;;;;;;;3.73;3.37;;;20.60;44.30;;;;;;5057854;28;20176;-92
2022/04/24 11:37:05;;;;;;;3.90;3.43;;;20.60;44.20;;;;;;5058400;28;20467;-92
2022/04/24 11:39:32;;;;;;;4.33;3.30;;;20.60;44.30;;;;;;5058934;28;20175;-90
2022/04/24 11:41:58;;;;;;;3.03;2.83;;;20.60;44.30;;;;;;5057638;28;20228;-92
2022/04/24 11:50:16;;;;;;;3.50;3.20;;;20.60;44.10;;;;;;5075116;28;20247;-90
2022/04/24 11:52:46;;;;;;;3.60;3.30;;;20.60;44.10;;;;;;5051921;28;20458;-91
2022/04/24 11:58:16;;;;;;;3.60;3.30;;;20.60;44.10;;;;;;5077739;28;20508;-92
2022/04/24 12:00:42;;;;;;;3.50;3.20;;;20.50;44.00;;;;;;5055969;28;20207;-91
2022/04/24 12:03:08;;;;;;;3.27;2.97;;;20.50;44.10;;;;;;5056443;28;20169;-91
2022/04/24 12:05:34;;;;;;;4.63;3.17;;;20.50;44.10;;;;;;5053835;28;20171;-91
2022/04/24 12:08:04;;;;;;;3.70;3.40;;;20.50;44.10;;;;;;5054032;28;20585;-91
2022/04/24 12:10:30;;;;;;;3.50;3.20;;;20.50;44.20;;;;;;5053982;28;20231;-91
2022/04/24 12:13:04;;;;;;;3.40;3.10;;;20.50;44.30;;;;;;5054859;28;20205;-91
2022/04/24 12:15:30;;;;;;;3.27;2.97;;;20.50;44.30;;;;;;5056011;28;20460;-90
2022/04/24 12:17:58;;;;;;;3.47;3.17;;;20.50;44.40;;;;;;5057696;28;20179;-92
2022/04/24 12:20:40;;;;;;;4.40;3.67;;;20.50;44.40;;;;;;5054981;28;20550;-92
2022/04/24 12:23:17;;;;;;;4.50;3.40;;;20.50;44.40;;;;;;5054780;28;20636;-91
2022/04/24 12:25:50;;;;;;;3.70;3.40;;;20.50;44.50;;;;;;5057428;28;20549;-91
2022/04/24 12:28:31;;;;;;;4.27;3.13;;;20.50;44.50;;;;;;5054133;28;20201;-91
2022/04/24 12:30:57;;;;;;;3.43;3.07;;;20.50;44.60;;;;;;5052553;28;20592;-90
2022/04/24 12:33:23;;;;;;;3.43;3.13;;;20.50;44.60;;;;;;5051956;28;20172;-90
2022/04/24 12:35:49;;;;;;;3.07;2.87;;;20.50;44.60;;;;;;5052478;28;20233;-91
2022/04/24 12:38:16;;;;;;;3.33;3.03;;;20.40;44.70;;;;;;5052360;28;20187;-90
2022/04/24 12:40:57;;;;;;;3.77;3.33;;;20.40;44.70;;;;;;5052793;28;20358;-91
2022/04/24 12:43:25;;;;;;;3.50;3.20;;;20.40;44.70;;;;;;5050558;28;20164;-91
2022/04/24 12:45:51;;;;;;;3.50;3.20;;;20.40;44.80;;;;;;5051214;28;20168;-89
2022/04/24 12:48:18;;;;;;;3.50;3.20;;;20.40;44.80;;;;;;5050083;28;20591;-90
2022/04/24 12:50:44;;;;;;;3.40;3.10;;;20.40;44.80;;;;;;5051992;28;20202;-90
2022/04/24 12:53:10;;;;;;;3.73;3.43;;;20.40;44.80;;;;;;5051419;28;20541;-90
2022/04/24 12:55:36;;;;;;;3.30;3.00;;;20.40;44.80;;;;;;5052668;28;20521;-91
2022/04/24 12:58:02;;;;;;;3.70;3.40;;;20.40;44.80;;;;;;5070209;28;20167;-92
2022/04/24 13:00:28;;;;;;;3.07;2.87;;;20.40;44.80;;;;;;5052066;28;20199;-90
2022/04/24 13:02:53;;;;;;;3.43;3.13;;;20.40;44.80;;;;;;5051703;28;20184;-90